createdAt,value
2018-06-11T00:01:37.033Z,20.00
2018-06-11T00:04:05.320Z,20.17
2018-06-11T00:06:33.564Z,22.27
2018-06-11T00:09:01.837Z,19.70
2018-06-11T00:11:30.113Z,20.57
2018-06-11T00:13:58.392Z,19.70
2018-06-11T00:16:26.671Z,19.97
2018-06-11T00:18:54.906Z,20.27
2018-06-11T00:21:23.178Z,21.10
2018-06-11T00:23:51.407Z,19.83
2018-06-11T00:26:19.712Z,19.97
2018-06-11T00:28:48.116Z,21.03
2018-06-11T00:31:16.407Z,20.60
2018-06-11T00:33:44.643Z,20.20
2018-06-11T00:36:12.938Z,20.77
2018-06-11T00:38:41.176Z,21.40
2018-06-11T00:41:09.477Z,19.97
2018-06-11T00:43:37.783Z,21.77
2018-06-11T00:46:06.068Z,19.63
2018-06-11T00:48:34.421Z,20.10
2018-06-11T00:51:03.593Z,19.23
2018-06-11T00:53:31.875Z,20.73
2018-06-11T00:56:09.944Z,20.37
2018-06-11T00:58:38.299Z,19.30
2018-06-11T01:01:06.644Z,20.47
2018-06-11T01:03:35.018Z,20.27
2018-06-11T01:06:03.300Z,22.60
2018-06-11T01:08:31.575Z,20.50
2018-06-11T01:10:59.875Z,20.00
2018-06-11T01:13:28.162Z,19.93
2018-06-11T01:15:56.468Z,19.37
2018-06-11T01:18:24.745Z,19.87
2018-06-11T01:20:53.027Z,20.57
2018-06-11T01:23:21.315Z,19.03
2018-06-11T01:25:49.594Z,21.03
2018-06-11T01:28:17.851Z,20.27
2018-06-11T01:30:46.153Z,18.87
2018-06-11T01:33:14.380Z,18.27
2018-06-11T01:35:42.641Z,22.23
2018-06-11T01:38:10.878Z,20.97
2018-06-11T01:40:39.193Z,21.57
2018-06-11T01:43:07.480Z,20.83
2018-06-11T01:45:35.806Z,19.80
2018-06-11T01:48:04.103Z,22.90
2018-06-11T01:50:32.371Z,24.03
2018-06-11T01:53:00.617Z,26.10
2018-06-11T01:55:28.879Z,23.43
2018-06-11T01:57:57.168Z,21.47
2018-06-11T02:00:25.563Z,23.83
2018-06-11T02:02:53.857Z,23.53
2018-06-11T02:05:21.855Z,23.37
2018-06-11T02:07:50.112Z,24.27
2018-06-11T02:10:18.440Z,25.00
2018-06-11T02:12:46.744Z,24.57
2018-06-11T02:15:15.053Z,30.00
2018-06-11T02:17:43.319Z,26.20
2018-06-11T02:20:11.595Z,30.10
2018-06-11T02:22:39.868Z,28.17
2018-06-11T02:25:08.098Z,26.70
2018-06-11T02:27:36.388Z,27.20
2018-06-11T02:30:05.149Z,31.50
2018-06-11T02:32:33.403Z,35.20
2018-06-11T02:35:01.760Z,28.83
2018-06-11T02:37:30.077Z,29.80
2018-06-11T02:39:58.359Z,28.23
2018-06-11T02:42:26.665Z,28.90
2018-06-11T02:44:54.958Z,26.70
2018-06-11T02:47:23.246Z,28.53
2018-06-11T02:49:51.499Z,29.80
2018-06-11T02:52:19.755Z,29.20
2018-06-11T02:54:48.197Z,28.33
2018-06-11T02:57:16.482Z,28.73
2018-06-11T02:59:44.782Z,29.73
2018-06-11T03:02:13.093Z,30.00
2018-06-11T03:04:41.362Z,30.87
2018-06-11T03:07:09.626Z,33.63
2018-06-11T03:09:37.941Z,29.27
2018-06-11T03:12:06.222Z,30.87
2018-06-11T03:14:34.503Z,31.50
2018-06-11T03:17:02.774Z,28.40
2018-06-11T03:19:30.992Z,29.80
2018-06-11T03:21:59.295Z,30.93
2018-06-11T03:24:27.548Z,30.17
2018-06-11T03:26:55.812Z,28.47
2018-06-11T03:29:24.111Z,28.90
2018-06-11T03:31:52.358Z,33.53
2018-06-11T03:34:20.650Z,31.60
2018-06-11T03:36:48.939Z,33.10
2018-06-11T03:39:17.213Z,33.43
2018-06-11T03:41:45.483Z,33.80
2018-06-11T03:44:13.744Z,35.43
2018-06-11T03:46:41.988Z,31.83
2018-06-11T03:49:10.283Z,33.00
2018-06-11T03:51:38.598Z,33.90
2018-06-11T03:54:07.106Z,33.37
2018-06-11T03:56:35.085Z,32.83
2018-06-11T03:59:03.399Z,32.67
2018-06-11T04:01:31.695Z,35.03
2018-06-11T04:03:59.956Z,35.17
2018-06-11T04:06:28.235Z,38.40
2018-06-11T04:08:56.572Z,36.97
2018-06-11T04:11:24.831Z,36.90
2018-06-11T04:13:53.899Z,35.50
2018-06-11T04:16:22.133Z,37.93
2018-06-11T04:18:50.637Z,39.80
2018-06-11T04:21:18.900Z,36.33
2018-06-11T04:23:47.158Z,41.67
2018-06-11T04:26:15.495Z,41.13
2018-06-11T04:28:43.768Z,38.90
2018-06-11T04:31:12.069Z,39.67
2018-06-11T04:33:40.404Z,42.43
2018-06-11T04:36:08.647Z,40.13
2018-06-11T04:38:36.890Z,42.17
2018-06-11T04:41:05.119Z,38.67
2018-06-11T04:43:33.467Z,35.50
2018-06-11T04:46:01.701Z,40.73
2018-06-11T04:48:29.974Z,38.90
2018-06-11T04:50:58.250Z,37.10
2018-06-11T04:53:26.533Z,37.17
2018-06-11T04:55:54.823Z,35.43
2018-06-11T04:58:23.101Z,36.97
2018-06-11T05:00:51.435Z,35.77
2018-06-11T05:03:19.922Z,38.77
2018-06-11T05:05:48.193Z,41.73
2018-06-11T05:08:16.453Z,33.43
2018-06-11T05:10:44.753Z,35.00
2018-06-11T05:13:13.057Z,35.53
2018-06-11T05:15:41.328Z,42.47
2018-06-11T05:18:09.955Z,33.63
2018-06-11T05:20:38.222Z,37.30
2018-06-11T05:23:06.478Z,34.07
2018-06-11T05:25:34.784Z,36.27
2018-06-11T05:28:03.086Z,35.53
2018-06-11T05:30:31.392Z,33.90
2018-06-11T05:32:59.674Z,31.70
2018-06-11T05:35:27.988Z,34.00
2018-06-11T05:37:56.309Z,36.83
2018-06-11T05:40:24.683Z,35.97
2018-06-11T05:42:52.903Z,34.03
2018-06-11T05:45:21.194Z,33.23
2018-06-11T05:47:49.528Z,35.13
2018-06-11T05:50:17.805Z,38.07
2018-06-11T05:52:46.090Z,35.37
2018-06-11T05:55:14.485Z,41.17
2018-06-11T05:57:42.768Z,35.70
2018-06-11T06:00:11.151Z,35.33
2018-06-11T06:02:39.389Z,35.53
2018-06-11T06:05:07.443Z,35.33
2018-06-11T06:07:35.841Z,33.13
2018-06-11T06:10:03.877Z,36.07
2018-06-11T06:12:32.171Z,33.10
2018-06-11T06:15:00.412Z,35.83
2018-06-11T06:17:28.722Z,31.90
2018-06-11T06:19:57.043Z,31.93
2018-06-11T06:22:25.326Z,36.77
2018-06-11T06:24:53.656Z,33.10
2018-06-11T06:27:21.915Z,32.20
2018-06-11T06:29:50.193Z,33.17
2018-06-11T06:32:18.500Z,29.97
2018-06-11T06:34:46.869Z,36.70
2018-06-11T06:37:15.092Z,34.00
2018-06-11T06:39:43.352Z,30.47
2018-06-11T06:42:11.632Z,31.77
2018-06-11T06:44:39.935Z,29.40
2018-06-11T06:47:08.140Z,31.52
2018-06-11T06:49:36.462Z,32.53
2018-06-11T06:52:04.685Z,36.50
2018-06-11T06:54:32.958Z,33.67
2018-06-11T06:57:01.237Z,43.20
2018-06-11T06:59:29.545Z,41.63
2018-06-11T07:01:57.827Z,30.60
2018-06-11T07:04:26.119Z,30.35
2018-06-11T07:06:54.360Z,28.07
2018-06-11T07:09:22.588Z,28.55
2018-06-11T07:11:50.876Z,27.73
2018-06-11T07:14:19.173Z,29.50
2018-06-11T07:16:47.448Z,26.57
2018-06-11T07:19:15.681Z,26.60
2018-06-11T07:21:43.973Z,26.17
2018-06-11T07:24:12.280Z,29.07
2018-06-11T07:26:40.524Z,26.60
2018-06-11T07:29:08.817Z,28.92
2018-06-11T07:31:37.067Z,29.67
2018-06-11T07:34:05.382Z,26.42
2018-06-11T07:36:33.680Z,26.62
2018-06-11T07:39:01.952Z,27.27
2018-06-11T07:41:30.253Z,27.10
2018-06-11T07:43:58.524Z,32.38
2018-06-11T07:46:26.847Z,27.93
2018-06-11T07:48:55.146Z,29.87
2018-06-11T07:51:23.449Z,27.50
2018-06-11T07:53:51.725Z,25.97
2018-06-11T07:56:19.991Z,27.77
2018-06-11T07:58:48.260Z,24.77
2018-06-11T08:01:16.242Z,30.35
2018-06-11T08:03:44.505Z,26.07
2018-06-11T08:06:12.792Z,25.72
2018-06-11T08:08:40.776Z,24.20
2018-06-11T08:11:09.030Z,27.22
2018-06-11T08:13:37.201Z,24.37
2018-06-11T08:16:05.417Z,27.20
2018-06-11T08:18:33.703Z,25.48
2018-06-11T08:21:01.996Z,23.90
2018-06-11T08:23:30.213Z,24.90
2018-06-11T08:25:58.472Z,24.07
2018-06-11T08:28:26.759Z,25.35
2018-06-11T08:30:55.016Z,28.65
2018-06-11T08:33:23.272Z,25.90
2018-06-11T08:35:51.539Z,23.52
2018-06-11T08:38:20.429Z,23.20
2018-06-11T08:40:48.729Z,22.40
2018-06-11T08:43:17.039Z,23.95
2018-06-11T08:45:45.289Z,22.05
2018-06-11T08:48:13.556Z,22.82
2018-06-11T08:50:41.847Z,24.50
2018-06-11T08:53:10.116Z,20.43
2018-06-11T08:55:38.413Z,21.87
2018-06-11T08:58:06.717Z,23.50
2018-06-11T09:00:35.009Z,22.87
2018-06-11T09:03:03.279Z,22.67
2018-06-11T09:05:32.087Z,22.10
2018-06-11T09:08:00.424Z,22.20
2018-06-11T09:10:28.684Z,20.97
2018-06-11T09:12:56.936Z,26.40
2018-06-11T09:15:25.241Z,22.87
2018-06-11T09:17:53.540Z,22.73
2018-06-11T09:20:21.770Z,23.70
2018-06-11T09:22:50.055Z,22.80
2018-06-11T09:25:18.352Z,21.55
2018-06-11T09:27:46.678Z,20.23
2018-06-11T09:30:14.932Z,22.48
2018-06-11T09:32:43.232Z,21.75
2018-06-11T09:35:11.527Z,21.48
2018-06-11T09:37:39.736Z,19.65
2018-06-11T09:40:07.991Z,19.75
2018-06-11T09:42:36.018Z,20.80
2018-06-11T09:45:04.302Z,22.05
2018-06-11T09:47:32.565Z,21.50
2018-06-11T09:50:00.836Z,24.55
2018-06-11T09:52:29.120Z,21.05
2018-06-11T09:54:57.402Z,19.65
2018-06-11T09:57:25.660Z,20.65
2018-06-11T09:59:53.914Z,21.25
2018-06-11T10:02:22.178Z,20.00
2018-06-11T10:04:50.469Z,20.37
2018-06-11T10:07:18.764Z,19.50
2018-06-11T10:09:47.080Z,21.40
2018-06-11T10:12:15.317Z,17.85
2018-06-11T10:14:43.632Z,18.37
2018-06-11T10:17:11.931Z,17.37
2018-06-11T10:19:39.943Z,17.98
2018-06-11T10:22:08.252Z,18.30
2018-06-11T10:24:36.498Z,16.52
2018-06-11T10:27:04.787Z,16.65
2018-06-11T10:29:33.121Z,14.65
2018-06-11T10:32:01.369Z,16.87
2018-06-11T10:34:29.610Z,17.50
2018-06-11T10:36:57.941Z,14.45
2018-06-11T10:39:26.203Z,14.80
2018-06-11T10:41:54.871Z,14.07
2018-06-11T10:44:23.168Z,15.28
2018-06-11T10:46:51.467Z,12.93
2018-06-11T10:49:19.732Z,12.47
2018-06-11T10:51:48.031Z,12.28
2018-06-11T10:54:16.259Z,11.57
2018-06-11T10:56:44.499Z,13.05
2018-06-11T10:59:12.800Z,12.75
2018-06-11T11:01:41.090Z,10.80
2018-06-11T11:04:09.402Z,11.35
2018-06-11T11:06:37.677Z,12.65
2018-06-11T11:09:06.679Z,10.93
2018-06-11T11:11:35.009Z,10.35
2018-06-11T11:14:03.033Z,10.38
2018-06-11T11:16:31.355Z,9.83
2018-06-11T11:18:59.596Z,9.70
2018-06-11T11:21:27.870Z,9.25
2018-06-11T11:23:56.128Z,10.08
2018-06-11T11:26:24.375Z,9.25
2018-06-11T11:28:52.578Z,9.18
2018-06-11T11:31:20.835Z,11.40
2018-06-11T11:33:49.105Z,8.88
2018-06-11T11:36:17.309Z,9.23
2018-06-11T11:38:45.587Z,9.63
2018-06-11T11:41:13.867Z,9.50
2018-06-11T11:43:42.163Z,9.58
2018-06-11T11:46:11.387Z,10.43
2018-06-11T11:48:39.658Z,9.30
2018-06-11T11:51:08.084Z,10.10
2018-06-11T11:53:36.262Z,10.63
2018-06-11T11:56:04.567Z,8.85
2018-06-11T11:58:32.826Z,10.05
2018-06-11T12:01:01.121Z,9.70
2018-06-11T12:03:29.455Z,9.85
2018-06-11T12:05:58.435Z,9.55
2018-06-11T12:08:26.419Z,12.50
2018-06-11T12:10:54.810Z,9.20
2018-06-11T12:13:23.142Z,8.70
2018-06-11T12:15:51.432Z,8.23
2018-06-11T12:18:19.406Z,8.03
2018-06-11T12:20:47.642Z,7.80
2018-06-11T12:23:15.938Z,7.72
2018-06-11T12:25:44.006Z,7.47
2018-06-11T12:28:12.309Z,14.07
2018-06-11T12:30:40.679Z,8.35
2018-06-11T12:33:08.687Z,10.35
2018-06-11T12:35:37.009Z,10.25
2018-06-11T12:38:05.259Z,9.80
2018-06-11T12:40:33.530Z,9.50
2018-06-11T12:43:01.913Z,9.08
2018-06-11T12:45:30.256Z,8.48
2018-06-11T12:47:58.586Z,8.70
2018-06-11T12:50:26.874Z,8.00
2018-06-11T12:52:54.867Z,9.35
2018-06-11T12:55:23.186Z,9.60
2018-06-11T12:57:51.458Z,8.30
2018-06-11T13:00:19.700Z,8.95
2018-06-11T13:02:47.996Z,8.93
2018-06-11T13:05:16.282Z,8.55
2018-06-11T13:07:44.539Z,9.85
2018-06-11T13:10:12.829Z,9.85
2018-06-11T13:12:41.073Z,9.43
2018-06-11T13:15:09.967Z,8.30
2018-06-11T13:17:38.207Z,9.40
2018-06-11T13:20:06.487Z,9.13
2018-06-11T13:22:34.812Z,7.58
2018-06-11T13:25:03.130Z,8.90
2018-06-11T13:27:31.502Z,9.25
2018-06-11T13:29:59.946Z,10.25
2018-06-11T13:32:28.329Z,7.55
2018-06-11T13:34:56.651Z,9.48
2018-06-11T13:37:24.881Z,9.13
2018-06-11T13:39:53.184Z,10.00
2018-06-11T13:42:21.556Z,7.85
2018-06-11T13:44:49.843Z,8.25
2018-06-11T13:47:18.133Z,10.85
2018-06-11T13:49:46.430Z,7.85
2018-06-11T13:52:14.696Z,8.73
2018-06-11T13:54:42.972Z,6.45
2018-06-11T13:57:11.268Z,9.43
2018-06-11T13:59:39.519Z,9.40
2018-06-11T14:02:07.849Z,8.70
2018-06-11T14:04:36.103Z,11.20
2018-06-11T14:07:04.411Z,9.25
2018-06-11T14:09:32.714Z,6.78
2018-06-11T14:12:00.981Z,7.28
2018-06-11T14:14:29.267Z,6.35
2018-06-11T14:16:57.601Z,6.80
2018-06-11T14:19:25.831Z,7.70
2018-06-11T14:21:54.313Z,7.58
2018-06-11T14:24:22.311Z,6.53
2018-06-11T14:26:50.350Z,6.10
2018-06-11T14:29:18.654Z,6.67
2018-06-11T14:31:46.928Z,6.22
2018-06-11T14:34:15.170Z,6.42
2018-06-11T14:36:43.442Z,7.70
2018-06-11T14:39:11.747Z,8.45
2018-06-11T14:41:40.051Z,7.58
2018-06-11T14:44:08.363Z,6.97
2018-06-11T14:46:36.647Z,8.35
2018-06-11T14:49:05.005Z,6.87
2018-06-11T14:51:33.365Z,7.03
2018-06-11T14:54:01.665Z,8.83
2018-06-11T14:56:29.959Z,8.85
2018-06-11T14:58:58.322Z,7.10
2018-06-11T15:01:26.588Z,7.42
2018-06-11T15:03:54.877Z,9.05
2018-06-11T15:06:23.224Z,10.18
2018-06-11T15:08:51.640Z,7.42
2018-06-11T15:11:19.913Z,8.73
2018-06-11T15:13:48.270Z,7.62
2018-06-11T15:16:16.605Z,7.45
2018-06-11T15:18:44.908Z,8.30
2018-06-11T15:21:13.266Z,8.13
2018-06-11T15:23:41.496Z,8.88
2018-06-11T15:26:09.783Z,8.35
2018-06-11T15:28:38.084Z,7.92
2018-06-11T15:31:06.071Z,9.23
2018-06-11T15:33:34.345Z,7.22
2018-06-11T15:36:02.628Z,10.18
2018-06-11T15:38:30.894Z,10.78
2018-06-11T15:40:58.890Z,7.92
2018-06-11T15:43:27.116Z,7.78
2018-06-11T15:45:55.419Z,10.50
2018-06-11T15:48:23.746Z,7.58
2018-06-11T15:50:52.090Z,7.33
2018-06-11T15:53:20.387Z,7.55
2018-06-11T15:55:48.623Z,8.50
2018-06-11T15:58:16.891Z,7.28
2018-06-11T16:00:45.137Z,12.43
2018-06-11T16:03:13.448Z,6.87
2018-06-11T16:05:41.737Z,7.25
2018-06-11T16:08:10.349Z,6.20
2018-06-11T16:10:38.659Z,12.55
2018-06-11T16:13:06.955Z,6.60
2018-06-11T16:15:35.211Z,7.65
2018-06-11T16:18:03.500Z,6.95
2018-06-11T16:20:31.512Z,7.37
2018-06-11T16:22:59.832Z,7.75
2018-06-11T16:25:28.652Z,7.25
2018-06-11T16:27:56.870Z,6.55
2018-06-11T16:30:25.151Z,6.97
2018-06-11T16:32:53.429Z,8.60
2018-06-11T16:35:21.701Z,7.60
2018-06-11T16:37:50.005Z,6.92
2018-06-11T16:40:18.345Z,7.00
2018-06-11T16:42:46.609Z,12.40
2018-06-11T16:45:14.966Z,8.73
2018-06-11T16:47:43.360Z,7.50
2018-06-11T16:50:11.642Z,9.40
2018-06-11T16:52:39.865Z,9.60
2018-06-11T16:55:08.127Z,10.93
2018-06-11T16:57:36.394Z,8.13
2018-06-11T17:00:04.735Z,8.20
2018-06-11T17:02:33.042Z,10.65
2018-06-11T17:05:01.294Z,9.53
2018-06-11T17:07:29.667Z,8.33
2018-06-11T17:09:57.905Z,9.98
2018-06-11T17:12:26.158Z,8.05
2018-06-11T17:14:54.419Z,9.10
2018-06-11T17:17:22.759Z,7.28
2018-06-11T17:19:51.052Z,8.73
2018-06-11T17:22:19.348Z,7.55
2018-06-11T17:24:47.590Z,7.58
2018-06-11T17:27:15.877Z,7.40
2018-06-11T17:29:44.167Z,7.87
2018-06-11T17:32:12.442Z,11.25
2018-06-11T17:34:40.811Z,7.90
2018-06-11T17:37:09.107Z,7.87
2018-06-11T17:39:37.571Z,8.55
2018-06-11T17:42:06.466Z,10.72
2018-06-11T17:44:34.892Z,8.15
2018-06-11T17:47:03.943Z,7.65
2018-06-11T17:49:32.241Z,7.62
2018-06-11T17:52:00.534Z,12.60
2018-06-11T17:54:29.000Z,9.58
2018-06-11T17:56:57.406Z,6.15
2018-06-11T17:59:25.427Z,6.65
2018-06-11T18:01:53.685Z,8.63
2018-06-11T18:04:22.132Z,7.10
2018-06-11T18:06:50.384Z,7.17
2018-06-11T18:09:19.082Z,8.20
2018-06-11T18:11:47.596Z,5.78
2018-06-11T18:14:16.074Z,6.53
2018-06-11T18:16:44.473Z,6.97
2018-06-11T18:19:13.144Z,5.60
2018-06-11T18:21:41.379Z,7.17
2018-06-11T18:24:09.657Z,5.45
2018-06-11T18:26:37.923Z,5.87
2018-06-11T18:29:06.200Z,6.10
2018-06-11T18:31:34.517Z,5.40
2018-06-11T18:34:02.934Z,6.62
2018-06-11T18:36:31.383Z,11.85
2018-06-11T18:38:59.751Z,6.67
2018-06-11T18:41:27.804Z,6.87
2018-06-11T18:43:55.861Z,6.00
2018-06-11T18:46:24.195Z,5.20
2018-06-11T18:48:52.581Z,5.97
2018-06-11T18:51:20.966Z,5.25
2018-06-11T18:53:49.333Z,9.90
2018-06-11T18:56:17.692Z,5.95
2018-06-11T18:58:46.053Z,5.57
2018-06-11T19:01:14.096Z,9.07
2018-06-11T19:03:42.382Z,6.60
2018-06-11T19:06:10.751Z,9.90
2018-06-11T19:08:39.067Z,7.57
2018-06-11T19:11:07.576Z,9.77
2018-06-11T19:13:35.891Z,7.07
2018-06-11T19:16:04.399Z,12.03
2018-06-11T19:18:32.665Z,7.00
2018-06-11T19:21:00.970Z,7.37
2018-06-11T19:23:29.288Z,7.40
2018-06-11T19:25:57.566Z,7.87
2018-06-11T19:28:26.042Z,9.10
2018-06-11T19:30:54.392Z,7.97
2018-06-11T19:33:22.719Z,8.50
2018-06-11T19:35:51.042Z,9.20
2018-06-11T19:38:19.353Z,9.97
2018-06-11T19:40:47.714Z,12.67
2018-06-11T19:43:16.008Z,8.57
2018-06-11T19:45:44.331Z,11.67
2018-06-11T19:48:12.606Z,8.60
2018-06-11T19:50:42.479Z,8.63
2018-06-11T19:53:10.875Z,10.30
2018-06-11T19:55:39.216Z,8.80
2018-06-11T19:58:07.527Z,8.77
2018-06-11T20:00:36.094Z,9.37
2018-06-11T20:03:04.420Z,9.90
2018-06-11T20:05:32.675Z,11.30
2018-06-11T20:08:00.974Z,14.77
2018-06-11T20:10:29.253Z,12.93
2018-06-11T20:12:57.532Z,9.97
2018-06-11T20:15:25.843Z,12.90
2018-06-11T20:17:54.153Z,11.60
2018-06-11T20:20:22.455Z,10.97
2018-06-11T20:22:50.924Z,12.97
2018-06-11T20:25:19.194Z,12.63
2018-06-11T20:27:47.481Z,14.30
2018-06-11T20:30:15.745Z,10.80
2018-06-11T20:32:43.782Z,11.20
2018-06-11T20:35:12.113Z,10.80
2018-06-11T20:37:40.440Z,15.17
2018-06-11T20:40:08.770Z,10.60
2018-06-11T20:42:37.059Z,14.37
2018-06-11T20:45:05.323Z,11.10
2018-06-11T20:47:33.720Z,11.93
2018-06-11T20:50:02.065Z,18.33
2018-06-11T20:52:30.122Z,13.20
2018-06-11T20:54:58.438Z,12.77
2018-06-11T20:57:26.691Z,13.43
2018-06-11T20:59:54.972Z,13.20
2018-06-11T21:02:23.214Z,13.40
2018-06-11T21:04:51.470Z,13.03
2018-06-11T21:07:19.775Z,12.37
2018-06-11T21:09:48.090Z,12.37
2018-06-11T21:12:16.388Z,13.47
2018-06-11T21:14:44.692Z,13.93
2018-06-11T21:17:12.976Z,16.60
2018-06-11T21:19:41.281Z,13.63
2018-06-11T21:22:09.528Z,12.50
2018-06-11T21:24:37.780Z,18.63
2018-06-11T21:27:06.104Z,13.00
2018-06-11T21:29:34.376Z,13.27
2018-06-11T21:32:02.371Z,13.30
2018-06-11T21:34:30.753Z,14.23
2018-06-11T21:36:59.072Z,13.97
2018-06-11T21:39:27.340Z,14.00
2018-06-11T21:41:55.640Z,13.80
2018-06-11T21:44:23.932Z,14.23
2018-06-11T21:46:51.933Z,15.40
2018-06-11T21:49:20.236Z,14.23
2018-06-11T21:51:48.531Z,14.67
2018-06-11T21:54:16.778Z,13.10
2018-06-11T21:56:44.992Z,14.10
2018-06-11T21:59:13.289Z,13.17
2018-06-11T22:01:41.607Z,14.07
2018-06-11T22:04:09.926Z,12.57
2018-06-11T22:06:38.109Z,15.37
2018-06-11T22:09:07.206Z,12.77
2018-06-11T22:11:35.511Z,12.40
2018-06-11T22:14:03.812Z,12.87
2018-06-11T22:16:32.092Z,13.63
2018-06-11T22:19:00.342Z,16.07
2018-06-11T22:21:28.620Z,12.20
2018-06-11T22:23:56.920Z,11.73
2018-06-11T22:26:25.216Z,13.13
2018-06-11T22:28:53.536Z,13.37
2018-06-11T22:31:21.815Z,15.07
2018-06-11T22:33:50.088Z,12.03
2018-06-11T22:36:18.365Z,13.53
2018-06-11T22:38:46.644Z,12.47
2018-06-11T22:41:14.918Z,20.00
2018-06-11T22:43:43.239Z,12.83
2018-06-11T22:46:11.501Z,14.27
2018-06-11T22:48:39.771Z,12.80
2018-06-11T22:51:08.058Z,23.03
2018-06-11T22:53:36.297Z,12.80
2018-06-11T22:56:04.748Z,13.30
2018-06-11T22:58:33.010Z,12.90
2018-06-11T23:01:01.286Z,13.20
2018-06-11T23:03:29.525Z,12.27
2018-06-11T23:05:57.804Z,12.43
2018-06-11T23:08:26.084Z,15.07
2018-06-11T23:10:54.385Z,12.77
2018-06-11T23:13:22.725Z,13.97
2018-06-11T23:15:51.045Z,14.13
2018-06-11T23:18:19.290Z,13.47
2018-06-11T23:20:47.553Z,15.37
2018-06-11T23:23:15.834Z,13.27
2018-06-11T23:25:44.119Z,12.57
2018-06-11T23:28:12.437Z,13.83
2018-06-11T23:30:40.678Z,15.00
2018-06-11T23:33:08.936Z,13.67
2018-06-11T23:35:37.186Z,12.73
2018-06-11T23:38:05.481Z,15.37
2018-06-11T23:40:33.756Z,12.87
2018-06-11T23:43:02.058Z,13.50
2018-06-11T23:45:30.349Z,14.63
2018-06-11T23:47:58.658Z,12.93
2018-06-11T23:50:26.663Z,14.60
2018-06-11T23:52:54.987Z,16.10
2018-06-11T23:55:23.262Z,13.07
2018-06-11T23:57:51.508Z,13.00
